sensor_id;sensor_type;location;lat;lon;timestamp;temperature;humidity
11826;DHT22;5970;48.094;11.496;2023-02-03T18:05:48;6.50;97.80
11826;DHT22;5970;48.094;11.496;2023-02-03T18:08:15;6.50;98.20
11826;DHT22;5970;48.094;11.496;2023-02-03T18:10:49;6.50;98.20
11826;DHT22;5970;48.094;11.496;2023-02-03T18:13:16;6.50;98.90
11826;DHT22;5970;48.094;11.496;2023-02-03T18:15:43;6.40;98.30
11826;DHT22;5970;48.094;11.496;2023-02-03T18:18:10;6.40;98.40
11826;DHT22;5970;48.094;11.496;2023-02-03T18:23:04;6.30;98.40
11826;DHT22;5970;48.094;11.496;2023-02-03T18:25:33;6.30;98.90
11826;DHT22;5970;48.094;11.496;2023-02-03T18:27:59;6.30;98.90
11826;DHT22;5970;48.094;11.496;2023-02-03T18:30:26;6.30;99.00
11826;DHT22;5970;48.094;11.496;2023-02-03T18:32:53;6.30;99.10
11826;DHT22;5970;48.094;11.496;2023-02-03T18:35:20;6.20;99.30
11826;DHT22;5970;48.094;11.496;2023-02-03T18:37:46;6.20;99.60
11826;DHT22;5970;48.094;11.496;2023-02-03T18:40:13;6.20;99.80
11826;DHT22;5970;48.094;11.496;2023-02-03T18:42:40;6.10;99.80
11826;DHT22;5970;48.094;11.496;2023-02-03T18:45:06;6.00;99.90
11826;DHT22;5970;48.094;11.496;2023-02-03T18:47:33;6.10;99.90
11826;DHT22;5970;48.094;11.496;2023-02-03T18:50:00;6.00;99.90
11826;DHT22;5970;48.094;11.496;2023-02-03T18:52:27;6.00;99.80
11826;DHT22;5970;48.094;11.496;2023-02-03T18:54:54;6.10;99.50
11826;DHT22;5970;48.094;11.496;2023-02-03T18:57:20;6.20;99.80
11826;DHT22;5970;48.094;11.496;2023-02-03T18:59:48;6.20;99.70
11826;DHT22;5970;48.094;11.496;2023-02-03T19:02:15;6.10;99.70
11826;DHT22;5970;48.094;11.496;2023-02-03T19:04:41;6.20;99.80
11826;DHT22;5970;48.094;11.496;2023-02-03T19:07:08;6.20;99.90
11826;DHT22;5970;48.094;11.496;2023-02-03T19:09:37;6.10;99.90
11826;DHT22;5970;48.094;11.496;2023-02-03T19:12:06;6.10;99.90
11826;DHT22;5970;48.094;11.496;2023-02-03T19:14:33;6.00;99.90
11826;DHT22;5970;48.094;11.496;2023-02-03T19:17:00;5.90;99.90
11826;DHT22;5970;48.094;11.496;2023-02-03T20:50:30;4.80;99.90
11826;DHT22;5970;48.094;11.496;2023-02-03T20:53:41;4.90;99.90
11826;DHT22;5970;48.094;11.496;2023-02-03T20:56:03;4.90;99.90
11826;DHT22;5970;48.094;11.496;2023-02-03T20:58:33;4.80;99.90
11826;DHT22;5970;48.094;11.496;2023-02-03T21:01:00;4.80;99.90
11826;DHT22;5970;48.094;11.496;2023-02-03T21:03:29;4.80;99.90
11826;DHT22;5970;48.094;11.496;2023-02-03T21:06:15;4.90;99.90
11826;DHT22;5970;48.094;11.496;2023-02-03T21:08:42;5.00;99.90
11826;DHT22;5970;48.094;11.496;2023-02-03T21:11:11;5.00;99.90
11826;DHT22;5970;48.094;11.496;2023-02-03T21:13:38;5.00;99.90
11826;DHT22;5970;48.094;11.496;2023-02-03T21:16:10;5.00;99.90
11826;DHT22;5970;48.094;11.496;2023-02-03T21:18:43;5.10;99.90
11826;DHT22;5970;48.094;11.496;2023-02-03T21:21:18;5.00;99.90
11826;DHT22;5970;48.094;11.496;2023-02-03T21:23:50;5.10;99.90
11826;DHT22;5970;48.094;11.496;2023-02-03T21:26:19;5.10;99.90
11826;DHT22;5970;48.094;11.496;2023-02-03T21:28:47;5.10;99.90
11826;DHT22;5970;48.094;11.496;2023-02-03T21:31:22;5.10;99.90
11826;DHT22;5970;48.094;11.496;2023-02-03T21:33:48;5.20;99.90
11826;DHT22;5970;48.094;11.496;2023-02-03T21:36:20;5.20;99.90
11826;DHT22;5970;48.094;11.496;2023-02-03T21:38:51;5.20;99.90
11826;DHT22;5970;48.094;11.496;2023-02-03T21:41:20;5.30;99.90
11826;DHT22;5970;48.094;11.496;2023-02-03T21:43:51;5.30;99.90
11826;DHT22;5970;48.094;11.496;2023-02-03T21:46:20;5.30;99.90
11826;DHT22;5970;48.094;11.496;2023-02-03T21:48:55;5.30;99.90
11826;DHT22;5970;48.094;11.496;2023-02-03T21:51:23;5.20;99.90
11826;DHT22;5970;48.094;11.496;2023-02-03T21:53:56;5.30;99.90
11826;DHT22;5970;48.094;11.496;2023-02-03T21:56:24;5.30;99.90
11826;DHT22;5970;48.094;11.496;2023-02-03T21:58:52;5.30;99.90
11826;DHT22;5970;48.094;11.496;2023-02-03T22:01:22;5.30;99.90
11826;DHT22;5970;48.094;11.496;2023-02-03T22:03:51;5.30;99.90
11826;DHT22;5970;48.094;11.496;2023-02-03T22:08:46;5.30;99.90
11826;DHT22;5970;48.094;11.496;2023-02-03T22:11:14;5.30;99.90
11826;DHT22;5970;48.094;11.496;2023-02-03T22:13:40;5.30;99.90
11826;DHT22;5970;48.094;11.496;2023-02-03T22:16:08;5.20;99.90
11826;DHT22;5970;48.094;11.496;2023-02-03T22:18:35;5.20;99.90
11826;DHT22;5970;48.094;11.496;2023-02-03T22:21:02;5.10;99.90
11826;DHT22;5970;48.094;11.496;2023-02-03T22:23:28;5.20;99.90
11826;DHT22;5970;48.094;11.496;2023-02-03T22:25:55;5.20;99.90
11826;DHT22;5970;48.094;11.496;2023-02-03T22:28:22;5.20;99.90
11826;DHT22;5970;48.094;11.496;2023-02-03T22:30:49;5.20;99.90
11826;DHT22;5970;48.094;11.496;2023-02-03T22:33:16;5.20;99.90
11826;DHT22;5970;48.094;11.496;2023-02-03T22:52:50;5.30;99.90
11826;DHT22;5970;48.094;11.496;2023-02-03T22:55:22;6.50;99.90
11826;DHT22;5970;48.094;11.496;2023-02-03T22:57:49;5.30;99.90
11826;DHT22;5970;48.094;11.496;2023-02-03T23:00:22;5.20;99.90
11826;DHT22;5970;48.094;11.496;2023-02-03T23:02:49;5.20;99.90
11826;DHT22;5970;48.094;11.496;2023-02-03T23:05:16;5.20;99.90
11826;DHT22;5970;48.094;11.496;2023-02-03T23:07:43;5.20;99.90
11826;DHT22;5970;48.094;11.496;2023-02-03T23:10:21;5.20;99.90
11826;DHT22;5970;48.094;11.496;2023-02-03T23:12:51;5.20;99.90
11826;DHT22;5970;48.094;11.496;2023-02-03T23:15:18;5.10;99.90
11826;DHT22;5970;48.094;11.496;2023-02-03T23:17:46;5.10;99.90
11826;DHT22;5970;48.094;11.496;2023-02-03T23:20:17;5.10;99.90
11826;DHT22;5970;48.094;11.496;2023-02-03T23:22:45;5.10;99.90
11826;DHT22;5970;48.094;11.496;2023-02-03T23:25:13;5.10;99.90
11826;DHT22;5970;48.094;11.496;2023-02-03T23:27:40;5.50;99.90
11826;DHT22;5970;48.094;11.496;2023-02-03T23:30:08;4.20;99.90
11826;DHT22;5970;48.094;11.496;2023-02-03T23:32:36;5.00;99.90
11826;DHT22;5970;48.094;11.496;2023-02-03T23:35:06;5.10;99.90
11826;DHT22;5970;48.094;11.496;2023-02-03T23:37:52;5.00;99.90
11826;DHT22;5970;48.094;11.496;2023-02-03T23:40:20;4.90;99.90
11826;DHT22;5970;48.094;11.496;2023-02-03T23:42:47;5.00;99.90
11826;DHT22;5970;48.094;11.496;2023-02-03T23:45:15;5.00;99.90
11826;DHT22;5970;48.094;11.496;2023-02-03T23:47:44;4.90;99.90
11826;DHT22;5970;48.094;11.496;2023-02-03T23:50:15;4.90;99.90
11826;DHT22;5970;48.094;11.496;2023-02-03T23:52:45;4.80;99.90
11826;DHT22;5970;48.094;11.496;2023-02-03T23:55:18;4.80;99.90
11826;DHT22;5970;48.094;11.496;2023-02-03T23:57:49;4.60;99.90
